createdAt,value
2022-10-17T00:00:22.951Z,101495.66
2022-10-17T00:02:50.657Z,101496.59
2022-10-17T00:05:18.361Z,101501.09
2022-10-17T00:07:46.026Z,101495.78
2022-10-17T00:10:15.073Z,101495.78
2022-10-17T00:12:42.757Z,101487.69
2022-10-17T00:15:12.358Z,101484.09
2022-10-17T00:17:39.996Z,101490.38
2022-10-17T00:20:08.835Z,101487.72
2022-10-17T00:25:09.605Z,101485.97
2022-10-17T00:27:39.404Z,101479.75
2022-10-17T00:30:09.266Z,101482.44
2022-10-17T00:32:37.019Z,101483.38
2022-10-17T00:35:05.249Z,101478.06
2022-10-17T00:37:33.354Z,101479.88
2022-10-17T00:40:01.063Z,101475.34
2022-10-17T00:42:29.016Z,101471.78
2022-10-17T00:45:18.911Z,101468.19
2022-10-17T00:47:49.662Z,101472.72
2022-10-17T00:50:17.612Z,101475.41
2022-10-17T00:52:46.988Z,101473.63
2022-10-17T00:55:17.646Z,101470.94
2022-10-17T00:57:47.022Z,101471.84
2022-10-17T01:00:17.306Z,101461.97
2022-10-17T01:02:45.464Z,101464.69
2022-10-17T01:05:13.954Z,101475.44
2022-10-17T01:07:43.430Z,101471.84
2022-10-17T01:10:12.234Z,101468.31
2022-10-17T01:12:56.045Z,101476.34
2022-10-17T01:15:37.506Z,101472.78
2022-10-17T01:18:14.124Z,101469.22
2022-10-17T01:21:02.781Z,101462.03
2022-10-17T01:23:54.428Z,101461.22
2022-10-17T01:26:31.838Z,101464.81
2022-10-17T01:29:30.463Z,101468.38
2022-10-17T01:32:03.324Z,101462.94
2022-10-17T01:34:35.969Z,101466.47
2022-10-17T01:37:06.698Z,101459.25
2022-10-17T01:39:45.467Z,101463.69
2022-10-17T01:42:20.589Z,101459.13
2022-10-17T01:44:55.508Z,101459.09
2022-10-17T01:47:27.887Z,101450.97
2022-10-17T01:50:00.478Z,101455.41
2022-10-17T01:52:28.903Z,101446.41
2022-10-17T01:54:59.744Z,101450.84
2022-10-17T01:57:33.049Z,101448.16
2022-10-17T02:00:03.433Z,101442.69
2022-10-17T02:02:33.062Z,101446.19
2022-10-17T02:05:03.707Z,101435.38
2022-10-17T02:07:31.452Z,101425.47
2022-10-17T02:09:59.141Z,101433.50
2022-10-17T02:12:39.400Z,101426.25
2022-10-17T02:15:24.074Z,101425.34
2022-10-17T02:18:02.149Z,101428.91
2022-10-17T02:20:34.089Z,101426.22
2022-10-17T02:23:10.432Z,101425.38
2022-10-17T02:25:46.051Z,101427.19
2022-10-17T02:28:21.721Z,101428.06
2022-10-17T02:30:55.983Z,101424.47
2022-10-17T02:33:30.265Z,101423.53
2022-10-17T02:36:02.993Z,101433.38
2022-10-17T02:38:32.746Z,101433.44
2022-10-17T02:41:01.494Z,101418.13
2022-10-17T02:43:29.745Z,101420.75
2022-10-17T02:45:58.140Z,101417.13
2022-10-17T02:48:33.413Z,101427.84
2022-10-17T02:51:08.459Z,101420.66
2022-10-17T02:53:40.859Z,101423.31
2022-10-17T02:56:15.011Z,101433.22
2022-10-17T02:58:47.463Z,101439.50
2022-10-17T03:01:15.048Z,101432.34
2022-10-17T03:03:44.266Z,101430.50
2022-10-17T03:06:11.998Z,101415.22
2022-10-17T03:08:39.662Z,101426.88
2022-10-17T03:11:07.646Z,101422.41
2022-10-17T03:13:38.913Z,101426.84
2022-10-17T03:16:07.827Z,101427.75
2022-10-17T03:18:35.471Z,101432.22
2022-10-17T03:21:04.492Z,101428.66
2022-10-17T03:23:32.110Z,101429.56
2022-10-17T03:25:59.707Z,101428.69
2022-10-17T03:28:27.842Z,101432.31
2022-10-17T03:30:55.502Z,101439.44
2022-10-17T03:33:23.190Z,101435.88
2022-10-17T03:35:50.993Z,101444.88
2022-10-17T03:38:23.334Z,101435.88
2022-10-17T03:40:56.278Z,101439.41
2022-10-17T03:43:23.919Z,101442.97
2022-10-17T03:45:51.575Z,101439.41
2022-10-17T03:48:19.243Z,101433.97
2022-10-17T03:50:46.862Z,101445.59
2022-10-17T03:53:14.519Z,101448.31
2022-10-17T03:55:43.517Z,101450.06
2022-10-17T03:58:11.155Z,101458.97
2022-10-17T04:00:38.922Z,101458.03
2022-10-17T04:03:06.582Z,101459.78
2022-10-17T04:05:34.199Z,101464.25
2022-10-17T04:08:04.656Z,101466.88
2022-10-17T04:10:32.702Z,101464.19
2022-10-17T04:13:01.695Z,101469.53
2022-10-17T04:15:29.342Z,101467.75
2022-10-17T04:17:56.982Z,101470.38
2022-10-17T04:20:24.666Z,101474.88
2022-10-17T04:22:52.272Z,101464.91
2022-10-17T04:25:19.966Z,101463.09
2022-10-17T04:27:48.982Z,101468.44
2022-10-17T04:30:18.274Z,101470.22
2022-10-17T04:32:45.943Z,101465.78
2022-10-17T04:35:13.631Z,101455.00
2022-10-17T04:37:41.237Z,101459.44
2022-10-17T04:40:10.320Z,101462.09
2022-10-17T04:42:37.985Z,101460.34
2022-10-17T04:45:06.610Z,101456.72
2022-10-17T04:47:35.662Z,101469.28
2022-10-17T04:50:04.162Z,101472.91
2022-10-17T04:52:32.338Z,101475.63
2022-10-17T04:55:00.144Z,101478.31
2022-10-17T04:57:27.767Z,101470.19
2022-10-17T04:59:55.471Z,101475.56
2022-10-17T05:02:23.271Z,101485.44
2022-10-17T05:04:52.255Z,101474.69
2022-10-17T05:07:19.944Z,101488.09
2022-10-17T05:09:47.569Z,101487.19
2022-10-17T05:12:15.188Z,101497.03
2022-10-17T05:14:42.799Z,101504.16
2022-10-17T05:17:10.411Z,101502.34
2022-10-17T05:19:38.042Z,101500.47
2022-10-17T05:22:07.555Z,101512.09
2022-10-17T05:24:35.236Z,101507.59
2022-10-17T05:27:02.848Z,101507.59
2022-10-17T05:29:30.521Z,101512.06
2022-10-17T05:31:58.214Z,101504.88
2022-10-17T05:34:26.063Z,101511.16
2022-10-17T05:36:53.689Z,101514.72
2022-10-17T05:39:23.357Z,101520.13
2022-10-17T05:41:52.366Z,101529.09
2022-10-17T05:44:20.034Z,101523.69
2022-10-17T05:46:49.543Z,101526.38
2022-10-17T05:49:32.207Z,101524.53
2022-10-17T05:52:00.953Z,101514.63
2022-10-17T05:54:29.973Z,101518.25
2022-10-17T05:56:57.919Z,101520.03
2022-10-17T05:59:26.428Z,101523.63
2022-10-17T06:01:54.261Z,101526.31
2022-10-17T06:04:22.197Z,101526.34
2022-10-17T06:06:50.237Z,101532.63
2022-10-17T06:09:17.999Z,101520.97
2022-10-17T06:11:47.027Z,101526.31
2022-10-17T06:14:14.750Z,101534.38
2022-10-17T06:16:43.387Z,101538.84
2022-10-17T06:19:11.858Z,101534.38
2022-10-17T06:21:39.583Z,101530.75
2022-10-17T06:24:07.345Z,101539.75
2022-10-17T06:26:34.976Z,101554.06
2022-10-17T06:29:04.424Z,101547.78
2022-10-17T06:31:32.133Z,101557.63
2022-10-17T06:33:59.839Z,101557.56
2022-10-17T06:36:27.452Z,101547.66
2022-10-17T06:38:55.170Z,101544.91
2022-10-17T06:41:22.764Z,101542.19
2022-10-17T06:43:50.790Z,101554.72
2022-10-17T06:46:20.354Z,101558.25
2022-10-17T06:48:48.143Z,101559.97
2022-10-17T06:51:15.780Z,101563.41
2022-10-17T06:53:43.446Z,101572.31
2022-10-17T06:56:11.803Z,101572.25
2022-10-17T06:58:40.695Z,101588.31
2022-10-17T07:01:09.966Z,101575.66
2022-10-17T07:03:40.129Z,101583.69
2022-10-17T07:06:08.435Z,101579.97
2022-10-17T07:08:36.078Z,101577.25
2022-10-17T07:11:10.802Z,101575.38
2022-10-17T07:13:39.376Z,101584.31
2022-10-17T07:16:07.948Z,101575.25
2022-10-17T07:18:35.859Z,101583.19
2022-10-17T07:21:05.704Z,101586.69
2022-10-17T07:23:36.490Z,101588.44
2022-10-17T07:26:07.183Z,101584.69
2022-10-17T07:28:35.243Z,101589.06
2022-10-17T07:31:07.017Z,101597.00
2022-10-17T07:33:35.077Z,101595.94
2022-10-17T07:36:05.588Z,101598.47
2022-10-17T07:38:33.290Z,101592.94
2022-10-17T07:41:02.963Z,101595.50
2022-10-17T07:43:31.562Z,101595.28
2022-10-17T07:45:59.956Z,101590.56
2022-10-17T07:48:27.735Z,101593.13
2022-10-17T07:50:55.354Z,101593.88
2022-10-17T07:53:24.483Z,101597.41
2022-10-17T07:55:52.148Z,101591.75
2022-10-17T07:58:19.972Z,101604.31
2022-10-17T08:00:49.052Z,101596.09
2022-10-17T08:03:16.782Z,101594.13
2022-10-17T08:05:44.404Z,101598.28
2022-10-17T08:08:12.016Z,101607.00
2022-10-17T08:10:41.159Z,101605.78
2022-10-17T08:13:09.230Z,101616.31
2022-10-17T08:15:38.507Z,101627.78
2022-10-17T08:18:06.198Z,101627.47
2022-10-17T08:20:33.866Z,101632.66
2022-10-17T08:23:01.657Z,101636.94
2022-10-17T08:25:29.493Z,101641.22
2022-10-17T08:27:59.118Z,101638.34
2022-10-17T08:30:26.946Z,101639.00
2022-10-17T08:32:55.997Z,101638.72
2022-10-17T08:35:23.798Z,101627.72
2022-10-17T08:37:51.447Z,101638.47
2022-10-17T08:40:23.387Z,101644.84
2022-10-17T08:43:07.160Z,101653.69
2022-10-17T08:45:38.906Z,101662.50
2022-10-17T08:48:12.050Z,101657.72
2022-10-17T08:50:43.872Z,101657.56
2022-10-17T08:53:19.909Z,101658.31
2022-10-17T08:55:49.456Z,101669.00
2022-10-17T08:58:21.083Z,101666.28
2022-10-17T09:00:54.210Z,101677.13
2022-10-17T09:03:39.682Z,101674.31
2022-10-17T09:06:15.996Z,101683.03
2022-10-17T09:08:52.851Z,101693.47
2022-10-17T09:11:43.439Z,101684.13
2022-10-17T09:14:29.991Z,101692.84
2022-10-17T09:17:09.726Z,101699.81
2022-10-17T09:19:40.447Z,101698.09
2022-10-17T09:22:12.845Z,101697.13
2022-10-17T09:24:43.514Z,101701.66
2022-10-17T09:27:19.969Z,101699.56
2022-10-17T09:29:52.060Z,101709.38
2022-10-17T09:32:23.835Z,101711.06
2022-10-17T09:35:00.214Z,101716.41
2022-10-17T09:37:34.024Z,101731.97
2022-10-17T09:40:01.748Z,101731.91
2022-10-17T09:42:30.088Z,101729.31
2022-10-17T09:45:19.248Z,101743.00
2022-10-17T09:47:53.402Z,101736.91
2022-10-17T09:50:28.319Z,101744.34
2022-10-17T09:52:58.428Z,101744.63
2022-10-17T09:55:35.646Z,101751.16
2022-10-17T09:58:05.890Z,101759.50
2022-10-17T10:00:37.985Z,101757.78
2022-10-17T10:03:18.604Z,101765.16
2022-10-17T10:06:00.909Z,101764.34
2022-10-17T10:08:31.177Z,101768.03
2022-10-17T10:11:03.243Z,101782.53
2022-10-17T10:13:32.402Z,101793.47
2022-10-17T10:16:18.124Z,101794.41
2022-10-17T10:18:48.664Z,101790.03
2022-10-17T10:21:20.750Z,101788.31
2022-10-17T10:24:04.828Z,101771.19
2022-10-17T10:26:37.198Z,101781.97
2022-10-17T10:29:06.494Z,101778.34
2022-10-17T10:31:39.152Z,101782.78
2022-10-17T10:34:19.916Z,101784.56
2022-10-17T10:36:54.619Z,101783.53
2022-10-17T10:39:33.607Z,101783.44
2022-10-17T10:42:02.451Z,101795.06
2022-10-17T10:44:32.869Z,101809.44
2022-10-17T10:47:20.616Z,101811.28
2022-10-17T10:49:48.946Z,101821.41
2022-10-17T10:52:31.087Z,101827.75
2022-10-17T10:55:08.101Z,101834.97
2022-10-17T10:57:39.069Z,101846.84
2022-10-17T11:00:15.839Z,101859.50
2022-10-17T11:02:52.920Z,101848.66
2022-10-17T11:05:25.679Z,101836.09
2022-10-17T11:08:01.028Z,101829.81
2022-10-17T11:10:37.985Z,101831.66
2022-10-17T11:13:11.977Z,101828.03
2022-10-17T11:15:46.914Z,101812.72
2022-10-17T11:18:25.406Z,101810.00
2022-10-17T11:20:58.174Z,101804.47
2022-10-17T11:23:31.479Z,101809.81
2022-10-17T11:26:06.697Z,101792.56
2022-10-17T11:28:34.512Z,101778.06
2022-10-17T11:31:07.235Z,101792.50
2022-10-17T11:33:47.250Z,101799.81
2022-10-17T11:36:18.000Z,101817.06
2022-10-17T11:38:50.023Z,101822.44
2022-10-17T11:41:23.179Z,101823.25
2022-10-17T11:43:56.125Z,101846.66
2022-10-17T11:46:25.177Z,101839.28
2022-10-17T11:49:05.193Z,101859.72
2022-10-17T11:54:35.021Z,101855.72
2022-10-17T11:57:18.446Z,101849.47
2022-10-17T12:00:35.821Z,101853.06
2022-10-17T12:03:18.867Z,101838.63
2022-10-17T12:05:53.668Z,101852.13
2022-10-17T12:08:29.133Z,101840.44
2022-10-17T12:11:05.077Z,101844.09
2022-10-17T12:13:51.553Z,101859.47
2022-10-17T12:16:46.096Z,101877.69
2022-10-17T12:19:26.503Z,101880.50
2022-10-17T12:22:01.573Z,101853.56
2022-10-17T12:24:36.168Z,101857.25
2022-10-17T12:27:23.324Z,101852.63
2022-10-17T12:29:51.579Z,101842.69
2022-10-17T12:32:19.327Z,101847.19
2022-10-17T12:34:54.011Z,101847.94
2022-10-17T12:37:58.653Z,101856.88
2022-10-17T12:40:53.466Z,101864.94
2022-10-17T12:46:44.929Z,101871.13
2022-10-17T12:49:31.334Z,101875.63
2022-10-17T12:52:23.919Z,101879.13
2022-10-17T12:55:13.920Z,101871.03
2022-10-17T12:57:50.273Z,101876.50
2022-10-17T13:00:23.000Z,101876.47
2022-10-17T13:02:56.851Z,101872.81
2022-10-17T13:05:30.386Z,101887.09
2022-10-17T13:08:00.364Z,101881.56
2022-10-17T13:10:30.920Z,101889.66
2022-10-17T13:13:07.719Z,101886.88
2022-10-17T13:15:37.355Z,101893.13
2022-10-17T13:18:05.800Z,101896.72
2022-10-17T13:20:33.918Z,101902.16
2022-10-17T13:23:02.006Z,101902.19
2022-10-17T13:25:29.996Z,101896.75
2022-10-17T13:28:14.633Z,101901.31
2022-10-17T13:30:49.628Z,101914.88
2022-10-17T13:33:30.049Z,101928.53
2022-10-17T13:36:01.327Z,101919.63
2022-10-17T13:38:32.501Z,101926.22
2022-10-17T13:41:16.581Z,101932.69
2022-10-17T13:43:51.456Z,101929.94
2022-10-17T13:46:39.251Z,101936.16
2022-10-17T13:49:16.606Z,101929.81
2022-10-17T13:51:46.375Z,101934.31
2022-10-17T13:54:33.842Z,101943.38
2022-10-17T13:57:02.882Z,101932.41
2022-10-17T13:59:37.962Z,101937.78
2022-10-17T14:02:12.438Z,101936.81
2022-10-17T14:05:04.124Z,101942.09
2022-10-17T14:07:58.115Z,101946.50
2022-10-17T14:10:27.370Z,101948.16
2022-10-17T14:12:56.404Z,101948.03
2022-10-17T14:15:28.040Z,101947.94
2022-10-17T14:17:59.098Z,101957.00
2022-10-17T14:23:35.457Z,101955.47
2022-10-17T14:26:09.288Z,101955.66
2022-10-17T14:28:37.357Z,101953.81
2022-10-17T14:31:25.448Z,101951.09
2022-10-17T14:33:54.743Z,101958.47
2022-10-17T14:36:32.735Z,101973.09
2022-10-17T14:39:01.915Z,101968.69
2022-10-17T14:41:48.597Z,101972.41
2022-10-17T14:44:22.446Z,101985.13
2022-10-17T14:46:55.094Z,101985.06
2022-10-17T14:49:29.035Z,102002.28
2022-10-17T14:52:28.373Z,102006.88
2022-10-17T14:54:57.837Z,102017.81
2022-10-17T14:57:28.990Z,102018.75
2022-10-17T14:59:57.581Z,102024.44
2022-10-17T15:02:30.087Z,102024.56
2022-10-17T15:04:58.398Z,102021.84
2022-10-17T15:07:26.272Z,102023.66
2022-10-17T15:09:54.867Z,102033.56
2022-10-17T15:12:24.782Z,102039.00
2022-10-17T15:14:52.866Z,102039.03
2022-10-17T15:17:23.362Z,102042.69
2022-10-17T15:19:52.422Z,102047.16
2022-10-17T15:22:20.153Z,102041.81
2022-10-17T15:24:48.009Z,102042.84
2022-10-17T15:27:17.435Z,102041.13
2022-10-17T15:29:45.746Z,102048.44
2022-10-17T15:32:13.700Z,102036.88
2022-10-17T15:34:41.664Z,102029.84
2022-10-17T15:37:17.825Z,102023.50
2022-10-17T15:39:47.971Z,102041.66
2022-10-17T15:42:15.645Z,102051.66
2022-10-17T15:44:44.473Z,102061.69
2022-10-17T15:47:23.361Z,102059.94
2022-10-17T15:49:51.313Z,102071.88
2022-10-17T15:52:20.541Z,102081.88
2022-10-17T15:54:48.338Z,102086.50
2022-10-17T15:57:19.360Z,102086.63
2022-10-17T15:59:48.007Z,102082.13
2022-10-17T16:02:16.860Z,102091.22
2022-10-17T16:04:45.378Z,102098.56
2022-10-17T16:07:13.056Z,102105.84
2022-10-17T16:09:42.119Z,102107.81
2022-10-17T16:12:14.348Z,102109.72
2022-10-17T16:14:42.145Z,102108.03
2022-10-17T16:17:13.826Z,102109.94
2022-10-17T16:19:41.601Z,102116.31
2022-10-17T16:22:19.184Z,102114.59
2022-10-17T16:24:48.266Z,102111.97
2022-10-17T16:27:15.943Z,102102.97
2022-10-17T16:29:43.667Z,102109.44
2022-10-17T16:32:11.506Z,102107.69
2022-10-17T16:34:39.167Z,102100.56
2022-10-17T16:37:06.806Z,102115.06
2022-10-17T16:39:37.500Z,102108.78
2022-10-17T16:42:06.605Z,102101.63
2022-10-17T16:44:34.324Z,102111.59
2022-10-17T16:47:02.040Z,102108.03
2022-10-17T16:49:29.719Z,102125.22
2022-10-17T16:51:57.389Z,102126.19
2022-10-17T16:54:25.050Z,102139.78
2022-10-17T16:56:52.820Z,102146.09
2022-10-17T16:59:22.109Z,102146.19
2022-10-17T17:01:49.834Z,102151.63
2022-10-17T17:04:17.713Z,102152.53
2022-10-17T17:09:18.183Z,102138.16
2022-10-17T17:11:45.837Z,102138.19
2022-10-17T17:14:14.399Z,102124.69
2022-10-17T17:16:44.240Z,102134.63
2022-10-17T17:19:14.108Z,102137.31
2022-10-17T17:21:47.537Z,102139.22
2022-10-17T17:24:15.434Z,102140.16
2022-10-17T17:26:43.183Z,102151.88
2022-10-17T17:29:11.811Z,102151.91
2022-10-17T17:31:39.757Z,102151.94
2022-10-17T17:34:09.677Z,102154.69
2022-10-17T17:36:39.266Z,102155.63
2022-10-17T17:39:09.025Z,102168.28
2022-10-17T17:41:36.801Z,102173.78
2022-10-17T17:44:12.413Z,102175.63
2022-10-17T17:46:43.624Z,102184.69
2022-10-17T17:49:12.741Z,102184.72
2022-10-17T17:51:41.478Z,102186.56
2022-10-17T17:54:11.486Z,102184.75
2022-10-17T17:56:39.784Z,102191.13
2022-10-17T17:59:07.763Z,102185.72
2022-10-17T18:01:38.803Z,102198.34
2022-10-17T18:04:08.565Z,102194.78
2022-10-17T18:06:38.814Z,102195.69
2022-10-17T18:09:07.546Z,102198.38
2022-10-17T18:11:36.446Z,102201.06
2022-10-17T18:14:06.671Z,102192.94
2022-10-17T18:16:36.227Z,102190.25
2022-10-17T18:19:07.228Z,102193.88
2022-10-17T18:21:40.771Z,102200.28
2022-10-17T18:24:08.875Z,102200.31
2022-10-17T18:26:36.953Z,102203.97
2022-10-17T18:29:05.358Z,102212.09
2022-10-17T18:31:45.545Z,102211.22
2022-10-17T18:34:13.245Z,102210.34
2022-10-17T18:36:42.376Z,102214.88
2022-10-17T18:39:10.079Z,102216.69
2022-10-17T18:41:38.082Z,102215.81
2022-10-17T18:44:05.902Z,102209.50
2022-10-17T18:46:40.388Z,102211.31
2022-10-17T18:49:08.725Z,102214.94
2022-10-17T18:51:39.293Z,102214.13
2022-10-17T18:54:12.420Z,102222.25
2022-10-17T18:56:40.628Z,102224.97
2022-10-17T18:59:08.327Z,102238.50
2022-10-17T19:01:36.115Z,102235.81
2022-10-17T19:04:03.849Z,102229.44
2022-10-17T19:06:33.276Z,102233.09
2022-10-17T19:09:02.235Z,102243.91
2022-10-17T19:11:32.998Z,102241.19
2022-10-17T19:14:02.893Z,102238.50
2022-10-17T19:16:32.386Z,102237.59
2022-10-17T19:19:02.935Z,102249.38
2022-10-17T19:21:30.656Z,102243.97
2022-10-17T19:24:02.032Z,102243.97
2022-10-17T19:26:34.899Z,102245.78
2022-10-17T19:29:03.112Z,102252.09
2022-10-17T19:31:32.485Z,102247.66
2022-10-17T19:34:03.573Z,102256.72
2022-10-17T19:36:33.922Z,102246.78
2022-10-17T19:39:08.473Z,102246.78
2022-10-17T19:41:37.570Z,102256.78
2022-10-17T19:44:05.282Z,102254.09
2022-10-17T19:46:34.477Z,102244.22
2022-10-17T19:49:02.926Z,102240.63
2022-10-17T19:51:31.408Z,102250.56
2022-10-17T19:54:01.239Z,102255.09
2022-10-17T19:56:30.659Z,102249.69
2022-10-17T19:59:03.203Z,102249.72
2022-10-17T20:01:34.307Z,102255.13
2022-10-17T20:04:02.458Z,102259.66
2022-10-17T20:06:30.260Z,102266.03
2022-10-17T20:08:58.008Z,102268.75
2022-10-17T20:11:27.558Z,102261.56
2022-10-17T20:13:55.732Z,102266.06
2022-10-17T20:16:27.130Z,102266.94
2022-10-17T20:18:56.924Z,102271.50
2022-10-17T20:21:27.254Z,102261.59
2022-10-17T20:23:56.474Z,102261.59
2022-10-17T20:26:37.022Z,102267.94
2022-10-17T20:29:13.042Z,102265.22
2022-10-17T20:31:44.085Z,102268.88
2022-10-17T20:34:14.790Z,102270.63
2022-10-17T20:36:42.823Z,102270.66
2022-10-17T20:39:12.215Z,102272.44
2022-10-17T20:41:39.945Z,102276.97
2022-10-17T20:44:07.932Z,102273.38
2022-10-17T20:46:38.311Z,102273.38
2022-10-17T20:49:15.373Z,102271.59
2022-10-17T20:51:43.176Z,102268.94
2022-10-17T20:54:13.690Z,102266.22
2022-10-17T20:56:41.450Z,102262.66
2022-10-17T20:59:13.536Z,102270.78
2022-10-17T21:01:41.330Z,102274.41
2022-10-17T21:04:40.487Z,102279.84
2022-10-17T21:06:58.492Z,102284.38
2022-10-17T21:09:26.484Z,102289.78
2022-10-17T21:11:55.638Z,102296.97
2022-10-17T21:14:24.211Z,102297.00
2022-10-17T21:16:53.124Z,102301.53
2022-10-17T21:19:22.761Z,102300.66
2022-10-17T21:21:51.126Z,102297.97
2022-10-17T21:24:20.512Z,102292.63
2022-10-17T21:26:50.030Z,102306.16
2022-10-17T21:29:17.759Z,102301.69
2022-10-17T21:31:46.147Z,102309.81
2022-10-17T21:34:17.451Z,102315.19
2022-10-17T21:36:46.796Z,102302.63
2022-10-17T21:39:15.829Z,102306.22
2022-10-17T21:41:44.500Z,102305.31
2022-10-17T21:44:15.355Z,102322.47
2022-10-17T21:46:43.461Z,102320.66
2022-10-17T21:49:12.507Z,102330.59
2022-10-17T21:51:41.193Z,102326.97
2022-10-17T21:54:10.284Z,102330.59
2022-10-17T21:56:38.278Z,102331.53
2022-10-17T21:59:06.869Z,102336.03
2022-10-17T22:01:36.904Z,102338.75
2022-10-17T22:04:06.538Z,102338.81
2022-10-17T22:06:40.197Z,102340.63
2022-10-17T22:09:13.002Z,102339.75
2022-10-17T22:11:41.174Z,102343.38
2022-10-17T22:14:12.998Z,102343.41
2022-10-17T22:16:40.696Z,102342.50
2022-10-17T22:19:09.651Z,102344.31
2022-10-17T22:21:37.832Z,102336.25
2022-10-17T22:24:09.042Z,102340.75
2022-10-17T22:26:39.128Z,102339.88
2022-10-17T22:29:08.134Z,102340.78
2022-10-17T22:31:36.483Z,102344.38
2022-10-17T22:34:05.563Z,102348.94
2022-10-17T22:36:34.014Z,102347.09
2022-10-17T22:39:02.218Z,102342.66
2022-10-17T22:41:30.097Z,102344.41
2022-10-17T22:43:59.154Z,102349.81
2022-10-17T22:46:27.266Z,102339.94
2022-10-17T22:48:55.127Z,102341.72
2022-10-17T22:53:51.704Z,102342.63
2022-10-17T22:56:21.510Z,102338.16
2022-10-17T22:58:49.464Z,102348.03
2022-10-17T23:01:20.185Z,102352.56
2022-10-17T23:03:48.162Z,102355.28
2022-10-17T23:06:16.169Z,102353.47
2022-10-17T23:08:44.339Z,102361.59
2022-10-17T23:11:12.092Z,102370.59
2022-10-17T23:13:40.817Z,102367.91
2022-10-17T23:16:09.421Z,102371.50
2022-10-17T23:18:39.427Z,102361.56
2022-10-17T23:21:08.133Z,102371.50
2022-10-17T23:23:35.948Z,102358.91
2022-10-17T23:26:08.615Z,102358.00
2022-10-17T23:28:36.463Z,102367.91
2022-10-17T23:31:15.707Z,102360.72
2022-10-17T23:33:46.439Z,102350.78
2022-10-17T23:36:15.374Z,102356.19
2022-10-17T23:38:44.834Z,102356.19
2022-10-17T23:41:13.184Z,102358.88
2022-10-17T23:43:41.365Z,102355.31
2022-10-17T23:46:09.795Z,102355.31
2022-10-17T23:48:38.690Z,102355.31
2022-10-17T23:51:08.808Z,102364.31
2022-10-17T23:53:36.929Z,102364.31
2022-10-17T23:56:05.546Z,102354.44
2022-10-17T23:58:33.274Z,102354.44
